createdAt,value
2017-03-16T00:01:02.258Z,0
2017-03-16T00:02:14.979Z,0
2017-03-16T00:03:28.219Z,0
2017-03-16T00:04:41.549Z,0
2017-03-16T00:05:54.794Z,0
2017-03-16T00:07:08.056Z,0
2017-03-16T00:08:21.313Z,0
2017-03-16T00:09:34.535Z,0
2017-03-16T00:10:47.794Z,0
2017-03-16T00:12:01.084Z,0
2017-03-16T00:13:14.332Z,0
2017-03-16T00:14:27.577Z,0
2017-03-16T00:15:40.321Z,0
2017-03-16T00:16:53.541Z,0
2017-03-16T00:18:06.796Z,0
2017-03-16T00:19:20.106Z,0
2017-03-16T00:20:33.331Z,0
2017-03-16T00:21:46.574Z,0
2017-03-16T00:22:59.824Z,0
2017-03-16T00:24:13.066Z,0
2017-03-16T00:25:25.275Z,0
2017-03-16T00:26:38.540Z,0
2017-03-16T00:27:51.801Z,0
2017-03-16T00:29:05.083Z,0
2017-03-16T00:30:18.322Z,0
2017-03-16T00:31:31.605Z,0
2017-03-16T00:32:44.873Z,0
2017-03-16T00:33:58.197Z,0
2017-03-16T00:35:11.438Z,0
2017-03-16T00:36:24.178Z,0
2017-03-16T00:37:37.408Z,0
2017-03-16T00:38:50.148Z,0
2017-03-16T00:40:03.393Z,0
2017-03-16T00:41:16.681Z,0
2017-03-16T00:42:29.940Z,0
2017-03-16T00:43:43.163Z,0
2017-03-16T00:44:56.395Z,0
2017-03-16T00:46:09.128Z,0
2017-03-16T00:47:22.419Z,0
2017-03-16T00:48:35.676Z,0
2017-03-16T00:49:48.929Z,0
2017-03-16T00:51:01.138Z,0
2017-03-16T00:52:14.357Z,0
2017-03-16T00:53:27.579Z,0
2017-03-16T00:54:40.300Z,0
2017-03-16T00:55:53.540Z,0
2017-03-16T00:57:06.271Z,0
2017-03-16T00:58:19.530Z,0
2017-03-16T00:59:32.273Z,0
2017-03-16T01:00:45.528Z,0
2017-03-16T01:01:58.792Z,0
2017-03-16T01:03:12.048Z,0
2017-03-16T01:04:24.777Z,0
2017-03-16T01:05:38.077Z,0
2017-03-16T01:06:51.336Z,0
2017-03-16T01:08:04.063Z,0
2017-03-16T01:09:17.287Z,0
2017-03-16T01:10:30.044Z,0
2017-03-16T01:11:42.787Z,0
2017-03-16T01:12:56.027Z,0
2017-03-16T01:14:09.284Z,0
2017-03-16T01:15:22.583Z,0
2017-03-16T01:16:35.819Z,0
2017-03-16T01:17:48.060Z,0
2017-03-16T01:19:01.347Z,0
2017-03-16T01:20:14.598Z,0
2017-03-16T01:21:27.824Z,0
2017-03-16T01:22:40.593Z,0
2017-03-16T01:23:53.831Z,0
2017-03-16T01:25:07.083Z,0
2017-03-16T01:26:19.275Z,0
2017-03-16T01:27:32.529Z,0
2017-03-16T01:28:45.770Z,0
2017-03-16T01:29:58.518Z,0
2017-03-16T01:31:11.821Z,0
2017-03-16T01:32:25.283Z,0
2017-03-16T01:33:38.555Z,0
2017-03-16T01:34:51.839Z,0
2017-03-16T01:36:04.572Z,0
2017-03-16T01:37:17.295Z,0
2017-03-16T01:38:30.040Z,0
2017-03-16T01:39:43.298Z,0
2017-03-16T01:40:56.600Z,0
2017-03-16T01:42:09.366Z,0
2017-03-16T01:43:22.113Z,0
2017-03-16T01:44:34.852Z,0
2017-03-16T01:45:48.093Z,0
2017-03-16T01:47:01.307Z,0
2017-03-16T01:48:14.547Z,0
2017-03-16T01:49:27.825Z,0
2017-03-16T01:50:41.049Z,0
2017-03-16T01:51:54.272Z,0
2017-03-16T01:53:07.503Z,0
2017-03-16T01:54:20.228Z,0
2017-03-16T01:55:32.939Z,0
2017-03-16T01:56:45.681Z,0
2017-03-16T01:57:58.404Z,0
2017-03-16T01:59:11.634Z,0
2017-03-16T02:00:24.873Z,0
2017-03-16T02:01:37.611Z,0
2017-03-16T02:02:50.351Z,0
2017-03-16T02:04:03.606Z,0
2017-03-16T02:05:16.346Z,0
2017-03-16T02:06:29.621Z,0
2017-03-16T02:07:42.341Z,0
2017-03-16T02:08:55.593Z,0
2017-03-16T02:10:08.321Z,0
2017-03-16T02:11:20.548Z,0
2017-03-16T02:12:33.316Z,0
2017-03-16T02:13:46.090Z,0
2017-03-16T02:14:59.417Z,0
2017-03-16T02:16:12.759Z,0
2017-03-16T02:17:25.492Z,0
2017-03-16T02:18:38.232Z,0
2017-03-16T02:19:51.446Z,0
2017-03-16T02:21:04.696Z,0
2017-03-16T02:22:18.027Z,0
2017-03-16T02:23:31.267Z,0
2017-03-16T02:24:43.989Z,0
2017-03-16T02:25:57.234Z,0
2017-03-16T02:27:10.471Z,0
2017-03-16T02:28:22.704Z,0
2017-03-16T02:29:35.492Z,0
2017-03-16T02:30:48.858Z,0
2017-03-16T02:32:02.247Z,0
2017-03-16T02:33:14.956Z,0
2017-03-16T02:34:28.213Z,0
2017-03-16T02:35:41.465Z,0
2017-03-16T02:36:54.683Z,0
2017-03-16T02:38:07.955Z,0
2017-03-16T02:39:21.193Z,0
2017-03-16T02:40:34.426Z,0
2017-03-16T02:41:47.661Z,0
2017-03-16T02:43:00.386Z,0
2017-03-16T02:44:13.615Z,0
2017-03-16T02:45:26.875Z,0
2017-03-16T02:46:40.114Z,0
2017-03-16T02:47:52.848Z,0
2017-03-16T02:49:06.094Z,0
2017-03-16T02:50:19.384Z,0
2017-03-16T02:51:32.667Z,0
2017-03-16T02:52:45.918Z,0
2017-03-16T02:53:58.649Z,0
2017-03-16T02:55:10.844Z,0
2017-03-16T02:56:24.088Z,0
2017-03-16T02:57:37.326Z,0
2017-03-16T02:58:50.163Z,0
2017-03-16T03:00:03.438Z,0
2017-03-16T03:01:16.681Z,0
2017-03-16T03:02:29.416Z,0
2017-03-16T03:03:42.658Z,0
2017-03-16T03:04:55.868Z,0
2017-03-16T03:06:09.140Z,0
2017-03-16T03:07:22.399Z,0
2017-03-16T03:08:35.658Z,0
2017-03-16T03:09:48.897Z,0
2017-03-16T03:11:01.625Z,0
2017-03-16T03:12:14.899Z,0
2017-03-16T03:13:27.110Z,0
2017-03-16T03:14:40.349Z,0
2017-03-16T03:15:53.623Z,0
2017-03-16T03:17:06.865Z,0
2017-03-16T03:18:19.605Z,0
2017-03-16T03:19:32.328Z,0
2017-03-16T03:20:45.553Z,0
2017-03-16T03:21:58.901Z,0
2017-03-16T03:23:12.579Z,0
2017-03-16T03:24:25.342Z,0
2017-03-16T03:25:38.598Z,0
2017-03-16T03:26:51.826Z,0
2017-03-16T03:28:05.068Z,0
2017-03-16T03:29:18.308Z,0
2017-03-16T03:30:31.031Z,0
2017-03-16T03:31:44.321Z,0
2017-03-16T03:32:57.030Z,0
2017-03-16T03:34:09.886Z,0
2017-03-16T03:35:23.129Z,0
2017-03-16T03:36:35.872Z,0
2017-03-16T03:37:48.612Z,0
2017-03-16T03:39:01.359Z,0
2017-03-16T03:40:14.626Z,0
2017-03-16T03:41:26.837Z,0
2017-03-16T03:42:39.568Z,0
2017-03-16T03:43:52.823Z,0
2017-03-16T03:45:06.074Z,0
2017-03-16T03:46:19.356Z,0
2017-03-16T03:47:32.603Z,0
2017-03-16T03:48:45.326Z,0
2017-03-16T03:49:58.059Z,0
2017-03-16T03:51:11.327Z,0
2017-03-16T03:52:24.036Z,0
2017-03-16T03:53:37.274Z,0
2017-03-16T03:54:50.052Z,0
2017-03-16T03:56:02.306Z,0
2017-03-16T03:57:15.580Z,0
2017-03-16T03:58:28.319Z,0
2017-03-16T03:59:41.066Z,0
2017-03-16T04:00:53.778Z,0
2017-03-16T04:02:07.035Z,0
2017-03-16T04:03:20.291Z,0
2017-03-16T04:04:33.542Z,0
2017-03-16T04:05:46.795Z,0
2017-03-16T04:07:00.041Z,0
2017-03-16T04:08:13.273Z,0
2017-03-16T04:09:25.989Z,0
2017-03-16T04:10:39.231Z,0
2017-03-16T04:11:52.471Z,0
2017-03-16T04:13:05.740Z,0
2017-03-16T04:14:19.006Z,0
2017-03-16T04:15:32.301Z,0
2017-03-16T04:16:45.571Z,0
2017-03-16T04:17:58.836Z,0
2017-03-16T04:19:12.099Z,0
2017-03-16T04:20:25.381Z,0
2017-03-16T04:21:38.644Z,0
2017-03-16T04:22:51.905Z,0
2017-03-16T04:24:05.126Z,0
2017-03-16T04:25:17.827Z,0
2017-03-16T04:26:31.069Z,0
2017-03-16T04:27:44.324Z,0
2017-03-16T04:28:57.563Z,0
2017-03-16T04:30:10.801Z,0
2017-03-16T04:31:23.546Z,0
2017-03-16T04:32:36.821Z,0
2017-03-16T04:33:50.065Z,0
2017-03-16T04:35:02.264Z,0
2017-03-16T04:36:14.987Z,0
2017-03-16T04:37:28.300Z,0
2017-03-16T04:38:41.576Z,0
2017-03-16T04:39:54.798Z,0
2017-03-16T04:41:08.052Z,0
2017-03-16T04:42:21.289Z,0
2017-03-16T04:43:34.549Z,0
2017-03-16T04:44:47.790Z,0
2017-03-16T04:46:00.550Z,0
2017-03-16T04:47:13.790Z,0
2017-03-16T04:48:27.030Z,0
2017-03-16T04:49:39.765Z,0
2017-03-16T04:50:52.501Z,0
2017-03-16T04:52:05.746Z,0
2017-03-16T04:53:18.476Z,0
2017-03-16T04:54:31.776Z,0
2017-03-16T04:55:45.022Z,0
2017-03-16T04:56:58.242Z,0
2017-03-16T04:58:10.956Z,0
2017-03-16T04:59:23.658Z,0
2017-03-16T05:00:36.916Z,0
2017-03-16T05:01:50.153Z,0
2017-03-16T05:03:03.395Z,0
2017-03-16T05:04:16.128Z,0
2017-03-16T05:05:29.396Z,0
2017-03-16T05:06:42.675Z,0
2017-03-16T05:07:55.907Z,0
2017-03-16T05:09:09.169Z,0
2017-03-16T05:10:21.893Z,0
2017-03-16T05:11:35.156Z,0
2017-03-16T05:12:48.419Z,0
2017-03-16T05:14:01.697Z,0
2017-03-16T05:15:14.450Z,0
2017-03-16T05:16:27.685Z,0
2017-03-16T05:17:40.418Z,0
2017-03-16T05:18:53.643Z,0
2017-03-16T05:20:06.913Z,0
2017-03-16T05:21:20.179Z,0
2017-03-16T05:22:33.455Z,0
2017-03-16T05:23:46.188Z,0
2017-03-16T05:24:59.446Z,0
2017-03-16T05:26:12.695Z,0
2017-03-16T05:27:25.978Z,0
2017-03-16T05:28:39.250Z,0
2017-03-16T05:29:52.000Z,0
2017-03-16T05:31:04.738Z,0
2017-03-16T05:32:16.955Z,0
2017-03-16T05:33:29.684Z,0
2017-03-16T05:34:42.423Z,0
2017-03-16T05:35:55.185Z,0
2017-03-16T05:37:08.436Z,0
2017-03-16T05:38:21.207Z,0
2017-03-16T05:39:34.456Z,0
2017-03-16T05:40:47.694Z,0
2017-03-16T05:42:00.452Z,0
2017-03-16T05:43:12.694Z,0
2017-03-16T05:44:25.961Z,0
2017-03-16T05:45:38.694Z,0
2017-03-16T05:46:51.927Z,0
2017-03-16T05:48:05.161Z,0
2017-03-16T05:49:18.422Z,0
2017-03-16T05:50:30.666Z,0
2017-03-16T05:51:43.928Z,0
2017-03-16T05:52:57.229Z,0
2017-03-16T05:54:09.473Z,0
2017-03-16T05:55:22.728Z,0
2017-03-16T05:56:36.010Z,0
2017-03-16T05:57:49.462Z,0
2017-03-16T05:59:02.811Z,0
2017-03-16T06:00:16.055Z,0
2017-03-16T06:01:28.327Z,0
2017-03-16T06:02:41.608Z,0
2017-03-16T06:03:54.852Z,0
2017-03-16T06:05:08.082Z,0
2017-03-16T06:06:21.366Z,0
2017-03-16T06:07:34.622Z,0
2017-03-16T06:08:47.860Z,0
2017-03-16T06:10:01.140Z,0
2017-03-16T06:11:14.386Z,0
2017-03-16T06:12:27.636Z,0
2017-03-16T06:13:40.878Z,0
2017-03-16T06:14:54.137Z,0
2017-03-16T06:16:07.375Z,0
2017-03-16T06:17:20.658Z,0
2017-03-16T06:18:33.939Z,0
2017-03-16T06:19:47.190Z,0
2017-03-16T06:21:00.450Z,0
2017-03-16T06:22:13.217Z,0
2017-03-16T06:23:26.500Z,0
2017-03-16T06:24:39.769Z,0
2017-03-16T06:25:53.038Z,0
2017-03-16T06:27:06.293Z,0
2017-03-16T06:28:18.537Z,0
2017-03-16T06:29:31.814Z,0
2017-03-16T06:30:44.549Z,0
2017-03-16T06:31:57.798Z,0
2017-03-16T06:33:11.063Z,0
2017-03-16T06:34:23.283Z,0
2017-03-16T06:35:36.502Z,0
2017-03-16T06:36:49.730Z,0
2017-03-16T06:38:02.969Z,0
2017-03-16T06:39:16.246Z,0
2017-03-16T06:40:28.977Z,0
2017-03-16T06:41:42.263Z,0
2017-03-16T06:42:55.011Z,0
2017-03-16T06:44:08.241Z,0
2017-03-16T06:45:21.536Z,0
2017-03-16T06:46:34.789Z,0
2017-03-16T06:47:48.038Z,0
2017-03-16T06:49:01.282Z,0
2017-03-16T06:50:14.538Z,0
2017-03-16T06:51:27.777Z,0
2017-03-16T06:52:40.522Z,0
2017-03-16T06:53:53.840Z,0
2017-03-16T06:55:07.079Z,0
2017-03-16T06:56:20.318Z,0
2017-03-16T06:57:33.562Z,0
2017-03-16T06:58:46.283Z,0
2017-03-16T06:59:59.554Z,0
2017-03-16T07:01:12.796Z,0
2017-03-16T07:02:26.032Z,0
2017-03-16T07:03:39.303Z,0
2017-03-16T07:04:52.063Z,0
2017-03-16T07:06:04.809Z,0
2017-03-16T07:07:17.534Z,0
2017-03-16T07:08:30.303Z,0
2017-03-16T07:09:43.537Z,0
2017-03-16T07:10:56.801Z,0
2017-03-16T07:12:09.549Z,0
2017-03-16T07:13:22.824Z,0
2017-03-16T07:14:36.078Z,0
2017-03-16T07:15:49.324Z,0
2017-03-16T07:17:02.570Z,0
2017-03-16T07:18:15.811Z,0
2017-03-16T07:19:29.049Z,0
2017-03-16T07:20:41.276Z,0
2017-03-16T07:21:53.981Z,0
2017-03-16T07:23:06.192Z,0
2017-03-16T07:24:18.922Z,0
2017-03-16T07:25:31.729Z,0
2017-03-16T07:26:44.466Z,0
2017-03-16T07:27:57.702Z,0
2017-03-16T07:29:10.953Z,0
2017-03-16T07:30:23.679Z,0
2017-03-16T07:31:36.940Z,0
2017-03-16T07:32:50.204Z,0
2017-03-16T07:34:02.955Z,0
2017-03-16T07:35:16.187Z,0
2017-03-16T07:36:29.439Z,0
2017-03-16T07:37:42.675Z,0
2017-03-16T07:38:55.920Z,0
2017-03-16T07:40:09.170Z,0
2017-03-16T07:41:22.420Z,0
2017-03-16T07:42:35.122Z,0
2017-03-16T07:43:48.395Z,0
2017-03-16T07:45:01.615Z,0
2017-03-16T07:46:14.890Z,0
2017-03-16T07:47:28.125Z,0
2017-03-16T07:48:40.848Z,0
2017-03-16T07:49:53.067Z,0
2017-03-16T07:51:06.281Z,0
2017-03-16T07:52:19.524Z,0
2017-03-16T07:53:32.275Z,0
2017-03-16T07:54:45.520Z,0
2017-03-16T07:55:58.770Z,0
2017-03-16T07:57:10.977Z,0
2017-03-16T07:58:24.231Z,0
2017-03-16T07:59:36.977Z,0
2017-03-16T08:00:50.232Z,0
2017-03-16T08:02:03.489Z,0
2017-03-16T08:03:16.242Z,0
2017-03-16T08:04:29.492Z,0
2017-03-16T08:05:42.627Z,0
2017-03-16T08:06:55.931Z,0
2017-03-16T08:08:08.657Z,0
2017-03-16T08:09:21.913Z,0
2017-03-16T08:10:34.639Z,0
2017-03-16T08:11:47.370Z,0
2017-03-16T08:13:00.636Z,0
2017-03-16T08:14:13.886Z,0
2017-03-16T08:15:26.621Z,0
2017-03-16T08:16:39.866Z,0
2017-03-16T08:17:52.604Z,0
2017-03-16T08:19:05.850Z,0
2017-03-16T08:20:19.101Z,0
2017-03-16T08:21:31.843Z,0
2017-03-16T08:22:45.156Z,0
2017-03-16T08:23:57.898Z,0
2017-03-16T08:25:11.183Z,0
2017-03-16T08:26:24.456Z,0
2017-03-16T08:27:37.715Z,0
2017-03-16T08:28:50.454Z,0
2017-03-16T08:30:03.689Z,0
2017-03-16T08:31:16.394Z,0
2017-03-16T08:32:29.664Z,0
2017-03-16T08:33:42.921Z,0
2017-03-16T08:34:55.170Z,0
2017-03-16T08:36:07.892Z,0
2017-03-16T08:37:20.700Z,0
2017-03-16T08:38:33.439Z,0
2017-03-16T08:39:46.721Z,0
2017-03-16T08:41:00.001Z,0
2017-03-16T08:42:12.203Z,0
2017-03-16T08:43:25.422Z,0
2017-03-16T08:44:38.709Z,0
2017-03-16T08:45:51.968Z,0
2017-03-16T08:47:05.217Z,0
2017-03-16T08:48:17.945Z,0
2017-03-16T08:49:30.666Z,0
2017-03-16T08:50:43.902Z,0
2017-03-16T08:51:56.626Z,0
2017-03-16T08:53:09.877Z,0
2017-03-16T08:54:23.139Z,0
2017-03-16T08:55:36.408Z,0
2017-03-16T08:56:49.698Z,0
2017-03-16T08:58:02.946Z,0
2017-03-16T08:59:15.649Z,5
2017-03-16T09:00:28.871Z,5
2017-03-16T09:01:42.156Z,5
2017-03-16T09:02:54.366Z,10
2017-03-16T09:04:07.592Z,10
2017-03-16T09:05:20.814Z,15
2017-03-16T09:06:34.044Z,20
2017-03-16T09:07:47.278Z,20
2017-03-16T09:09:00.501Z,25
2017-03-16T09:10:13.202Z,30
2017-03-16T09:11:25.947Z,35
2017-03-16T09:12:39.185Z,40
2017-03-16T09:13:51.907Z,45
2017-03-16T09:15:05.189Z,55
2017-03-16T09:16:17.397Z,65
2017-03-16T09:17:29.601Z,65
2017-03-16T09:18:42.348Z,75
2017-03-16T09:19:55.072Z,85
2017-03-16T09:21:07.797Z,110
2017-03-16T09:22:20.412Z,125
2017-03-16T09:23:33.743Z,140
2017-03-16T09:24:46.982Z,155
2017-03-16T09:26:00.234Z,175
2017-03-16T09:27:13.479Z,185
2017-03-16T09:28:26.718Z,200
2017-03-16T09:29:40.012Z,215
2017-03-16T09:30:53.282Z,235
2017-03-16T09:32:06.534Z,250
2017-03-16T09:33:19.795Z,260
2017-03-16T09:34:32.548Z,275
2017-03-16T09:35:45.813Z,295
2017-03-16T09:36:58.576Z,315
2017-03-16T09:38:11.827Z,335
2017-03-16T09:39:24.538Z,360
2017-03-16T09:40:37.782Z,365
2017-03-16T09:41:51.051Z,380
2017-03-16T09:43:04.282Z,405
2017-03-16T09:44:17.535Z,425
2017-03-16T09:45:30.810Z,440
2017-03-16T09:46:44.061Z,475
2017-03-16T09:47:57.323Z,485
2017-03-16T09:49:10.037Z,515
2017-03-16T09:50:23.285Z,530
2017-03-16T09:51:36.027Z,565
2017-03-16T09:52:48.245Z,590
2017-03-16T09:54:00.467Z,620
2017-03-16T09:55:13.701Z,660
2017-03-16T09:56:25.945Z,675
2017-03-16T09:57:39.233Z,685
2017-03-16T09:58:51.961Z,715
2017-03-16T10:00:05.219Z,725
2017-03-16T10:01:17.428Z,750
2017-03-16T10:02:29.652Z,780
2017-03-16T10:03:42.379Z,810
2017-03-16T10:04:55.638Z,835
2017-03-16T10:06:08.854Z,865
2017-03-16T10:07:22.088Z,885
2017-03-16T10:08:35.357Z,935
2017-03-16T10:09:48.606Z,925
2017-03-16T10:11:01.353Z,935
2017-03-16T10:12:14.618Z,955
2017-03-16T10:13:27.371Z,960
2017-03-16T10:14:40.614Z,990
2017-03-16T10:15:53.862Z,1015
2017-03-16T10:17:06.611Z,1050
2017-03-16T10:18:19.884Z,1080
2017-03-16T10:19:33.146Z,1075
2017-03-16T10:20:45.899Z,1105
2017-03-16T10:21:58.646Z,1065
2017-03-16T10:23:11.902Z,1115
2017-03-16T10:24:25.170Z,1175
2017-03-16T10:25:37.927Z,1175
2017-03-16T10:26:51.191Z,1215
2017-03-16T10:28:04.473Z,1255
2017-03-16T10:29:17.190Z,1240
2017-03-16T10:30:29.454Z,1295
2017-03-16T10:31:42.721Z,1305
2017-03-16T10:32:55.977Z,1325
2017-03-16T10:34:09.219Z,1350
2017-03-16T10:35:21.943Z,1350
2017-03-16T10:36:35.184Z,1355
2017-03-16T10:37:48.512Z,1390
2017-03-16T10:39:00.749Z,1440
2017-03-16T10:40:13.485Z,1470
2017-03-16T10:41:26.224Z,1500
2017-03-16T10:42:38.951Z,1485
2017-03-16T10:43:52.235Z,1460
2017-03-16T10:45:05.526Z,1530
2017-03-16T10:46:18.773Z,1515
2017-03-16T10:47:32.020Z,1555
2017-03-16T10:48:45.275Z,1555
2017-03-16T10:49:58.000Z,1535
2017-03-16T10:51:11.263Z,1600
2017-03-16T10:52:24.001Z,1640
2017-03-16T10:53:36.757Z,1655
2017-03-16T10:54:49.493Z,1700
2017-03-16T10:56:03.274Z,1675
2017-03-16T10:57:16.593Z,1685
2017-03-16T10:58:29.894Z,1685
2017-03-16T10:59:43.117Z,1740
2017-03-16T11:00:56.398Z,1675
2017-03-16T11:02:09.137Z,1715
2017-03-16T11:03:21.848Z,1760
2017-03-16T11:04:34.113Z,1835
2017-03-16T11:05:47.393Z,1760
2017-03-16T11:07:00.679Z,1670
2017-03-16T11:08:13.451Z,1700
2017-03-16T11:09:26.174Z,1730
2017-03-16T11:10:38.446Z,1700
2017-03-16T11:11:51.692Z,1740
2017-03-16T11:13:03.946Z,1830
2017-03-16T11:14:16.714Z,1830
2017-03-16T11:15:29.965Z,1680
2017-03-16T11:16:43.220Z,1650
2017-03-16T11:17:56.494Z,1570
2017-03-16T11:19:09.788Z,1530
2017-03-16T11:20:23.087Z,1445
2017-03-16T11:21:35.839Z,1350
2017-03-16T11:22:48.561Z,1375
2017-03-16T11:24:01.811Z,1785
2017-03-16T11:25:14.640Z,2315
2017-03-16T11:26:27.911Z,1885
2017-03-16T11:27:40.177Z,1895
2017-03-16T11:28:52.924Z,1925
2017-03-16T11:30:06.235Z,1895
2017-03-16T11:31:19.480Z,1770
2017-03-16T11:32:32.236Z,2155
2017-03-16T11:33:44.972Z,2170
2017-03-16T11:34:58.253Z,2215
2017-03-16T11:36:11.023Z,2370
2017-03-16T11:37:24.293Z,2375
2017-03-16T11:38:37.021Z,2270
2017-03-16T11:39:50.320Z,2440
2017-03-16T11:41:03.574Z,2450
2017-03-16T11:42:16.816Z,2405
2017-03-16T11:43:29.571Z,2315
2017-03-16T11:44:42.310Z,2370
2017-03-16T11:45:55.547Z,2555
2017-03-16T11:47:07.795Z,2365
2017-03-16T11:48:20.536Z,2445
2017-03-16T11:49:33.757Z,2455
2017-03-16T11:50:46.489Z,2545
2017-03-16T11:51:59.268Z,2420
2017-03-16T11:53:12.602Z,2505
2017-03-16T11:54:25.367Z,2530
2017-03-16T11:55:38.122Z,2285
2017-03-16T11:56:51.389Z,2495
2017-03-16T11:58:04.659Z,2280
2017-03-16T11:59:17.414Z,2225
2017-03-16T12:00:30.165Z,2595
2017-03-16T12:01:43.466Z,2565
2017-03-16T12:02:56.715Z,2550
2017-03-16T12:04:09.981Z,2585
2017-03-16T12:05:23.264Z,2610
2017-03-16T12:06:36.018Z,2490
2017-03-16T12:07:48.748Z,2620
2017-03-16T12:09:00.995Z,2825
2017-03-16T12:10:14.245Z,2560
2017-03-16T12:11:27.533Z,2675
2017-03-16T12:12:40.845Z,2505
2017-03-16T12:13:54.111Z,2740
2017-03-16T12:15:06.850Z,2610
2017-03-16T12:16:19.606Z,2540
2017-03-16T12:17:31.812Z,2710
2017-03-16T12:18:44.544Z,2775
2017-03-16T12:19:57.302Z,2665
2017-03-16T12:21:10.046Z,2685
2017-03-16T12:22:23.325Z,2880
2017-03-16T12:23:36.576Z,2820
2017-03-16T12:24:48.822Z,2585
2017-03-16T12:26:02.116Z,2415
2017-03-16T12:27:14.869Z,2465
2017-03-16T12:28:27.614Z,2445
2017-03-16T12:29:40.847Z,2515
2017-03-16T12:30:53.585Z,2670
2017-03-16T12:32:06.340Z,2670
2017-03-16T12:33:19.582Z,2745
2017-03-16T12:34:32.851Z,2490
2017-03-16T12:35:46.114Z,2225
2017-03-16T12:36:58.863Z,2725
2017-03-16T12:38:12.188Z,2930
2017-03-16T12:39:25.475Z,2890
2017-03-16T12:40:38.737Z,2900
2017-03-16T12:41:51.486Z,2700
2017-03-16T12:43:04.754Z,3045
2017-03-16T12:44:18.087Z,2870
2017-03-16T12:45:31.319Z,3005
2017-03-16T12:46:44.583Z,2855
2017-03-16T12:47:57.871Z,2910
2017-03-16T12:49:11.148Z,2880
2017-03-16T12:50:24.403Z,3190
2017-03-16T12:51:37.644Z,2925
2017-03-16T12:52:50.400Z,2925
2017-03-16T12:54:03.631Z,3010
2017-03-16T12:55:16.884Z,3070
2017-03-16T12:56:30.144Z,3095
2017-03-16T12:57:43.418Z,3215
2017-03-16T12:58:56.660Z,3115
2017-03-16T13:00:09.972Z,3150
2017-03-16T13:01:22.718Z,3105
2017-03-16T13:02:35.997Z,2980
2017-03-16T13:03:48.716Z,3310
2017-03-16T13:05:01.465Z,3195
2017-03-16T13:06:14.208Z,3230
2017-03-16T13:07:27.475Z,3465
2017-03-16T13:08:40.198Z,3200
2017-03-16T13:09:52.961Z,2575
2017-03-16T13:11:05.755Z,2855
2017-03-16T13:12:19.028Z,3070
2017-03-16T13:13:31.243Z,3055
2017-03-16T13:14:44.512Z,3070
2017-03-16T13:15:57.804Z,3140
2017-03-16T13:17:11.018Z,3275
2017-03-16T13:18:24.301Z,3630
2017-03-16T13:19:37.544Z,3310
2017-03-16T13:20:50.806Z,3560
2017-03-16T13:22:04.095Z,3315
2017-03-16T13:23:17.424Z,3395
2017-03-16T13:24:30.715Z,3575
2017-03-16T13:25:43.971Z,3550
2017-03-16T13:26:56.739Z,3715
2017-03-16T13:28:10.030Z,3630
2017-03-16T13:29:22.775Z,3745
2017-03-16T13:30:36.103Z,3490
2017-03-16T13:31:49.378Z,3250
2017-03-16T13:33:02.129Z,2790
2017-03-16T13:34:15.400Z,2500
2017-03-16T13:35:27.629Z,2380
2017-03-16T13:36:40.402Z,2875
2017-03-16T13:37:53.664Z,3805
2017-03-16T13:39:06.943Z,3785
2017-03-16T13:40:20.233Z,3900
2017-03-16T13:41:32.450Z,3710
2017-03-16T13:42:45.226Z,3865
2017-03-16T13:43:58.511Z,3760
2017-03-16T13:45:11.772Z,3690
2017-03-16T13:46:24.520Z,3720
2017-03-16T13:47:37.793Z,3600
2017-03-16T13:48:51.078Z,3705
2017-03-16T13:50:04.361Z,3725
2017-03-16T13:51:17.638Z,3745
2017-03-16T13:52:29.858Z,3775
2017-03-16T13:53:42.086Z,3825
2017-03-16T13:54:54.846Z,3790
2017-03-16T13:56:08.123Z,3535
2017-03-16T13:57:20.844Z,3280
2017-03-16T13:58:34.115Z,3610
2017-03-16T13:59:47.427Z,3410
2017-03-16T14:01:00.744Z,3475
2017-03-16T14:02:14.026Z,3605
2017-03-16T14:03:26.257Z,3735
2017-03-16T14:04:39.511Z,3680
2017-03-16T14:05:52.787Z,3830
2017-03-16T14:07:06.074Z,4075
2017-03-16T14:08:19.347Z,4075
2017-03-16T14:09:31.591Z,3920
2017-03-16T14:10:44.327Z,3960
2017-03-16T14:11:57.099Z,3755
2017-03-16T14:13:10.375Z,3465
2017-03-16T14:14:23.139Z,3175
2017-03-16T14:15:36.417Z,3610
2017-03-16T14:16:49.713Z,4040
2017-03-16T14:18:02.457Z,3970
2017-03-16T14:19:15.709Z,3720
2017-03-16T14:20:27.932Z,3940
2017-03-16T14:21:40.677Z,4190
2017-03-16T14:22:53.908Z,4225
2017-03-16T14:24:06.637Z,4230
2017-03-16T14:25:19.916Z,4005
2017-03-16T14:26:32.129Z,4075
2017-03-16T14:27:44.870Z,4055
2017-03-16T14:28:58.109Z,3835
2017-03-16T14:30:11.408Z,3590
2017-03-16T14:31:24.688Z,3295
2017-03-16T14:32:37.452Z,3300
2017-03-16T14:33:50.710Z,990
2017-03-16T14:35:03.963Z,3880
2017-03-16T14:36:17.219Z,4225
2017-03-16T14:37:30.492Z,4300
2017-03-16T14:38:43.969Z,4380
2017-03-16T14:39:57.197Z,4060
2017-03-16T14:41:10.444Z,4355
2017-03-16T14:42:23.737Z,4335
2017-03-16T14:43:36.510Z,2300
2017-03-16T14:44:49.280Z,4235
2017-03-16T14:46:02.510Z,4030
2017-03-16T14:47:15.791Z,3805
2017-03-16T14:48:28.514Z,2905
2017-03-16T14:49:41.259Z,3780
2017-03-16T14:50:54.553Z,4155
2017-03-16T14:52:07.863Z,3790
2017-03-16T14:53:20.610Z,3935
2017-03-16T14:54:33.340Z,905
2017-03-16T14:55:46.606Z,880
2017-03-16T14:56:59.881Z,3800
2017-03-16T14:58:12.124Z,3720
2017-03-16T14:59:25.401Z,3775
2017-03-16T15:00:38.296Z,3915
2017-03-16T15:01:51.556Z,1150
2017-03-16T15:03:04.840Z,3740
2017-03-16T15:04:17.603Z,3825
2017-03-16T15:05:30.390Z,3360
2017-03-16T15:06:43.175Z,2965
2017-03-16T15:07:56.487Z,3095
2017-03-16T15:09:09.242Z,3705
2017-03-16T15:10:22.470Z,3685
2017-03-16T15:11:35.686Z,3715
2017-03-16T15:12:48.929Z,1030
2017-03-16T15:14:02.164Z,865
2017-03-16T15:15:15.422Z,845
2017-03-16T15:16:28.697Z,880
2017-03-16T15:17:41.940Z,1065
2017-03-16T15:18:55.189Z,3635
2017-03-16T15:20:07.940Z,3545
2017-03-16T15:21:21.189Z,3695
2017-03-16T15:22:34.437Z,3835
2017-03-16T15:23:47.703Z,4185
2017-03-16T15:25:00.499Z,4340
2017-03-16T15:26:13.779Z,4155
2017-03-16T15:27:27.022Z,4330
2017-03-16T15:28:39.746Z,4185
2017-03-16T15:29:53.004Z,4200
2017-03-16T15:31:06.248Z,3755
2017-03-16T15:32:19.517Z,3560
2017-03-16T15:33:32.237Z,3530
2017-03-16T15:34:44.958Z,3375
2017-03-16T15:35:58.272Z,3645
2017-03-16T15:37:11.523Z,4050
2017-03-16T15:38:24.754Z,4260
2017-03-16T15:39:37.498Z,4415
2017-03-16T15:40:50.739Z,4500
2017-03-16T15:42:03.974Z,4520
2017-03-16T15:43:16.702Z,4565
2017-03-16T15:44:29.441Z,4505
2017-03-16T15:45:42.692Z,4265
2017-03-16T15:46:55.435Z,2280
2017-03-16T15:48:08.145Z,4490
2017-03-16T15:49:21.574Z,4580
2017-03-16T15:50:34.883Z,2865
2017-03-16T15:51:47.632Z,4590
2017-03-16T15:53:00.891Z,4475
2017-03-16T15:54:14.127Z,4005
2017-03-16T15:55:27.373Z,4150
2017-03-16T15:56:40.087Z,4770
2017-03-16T15:57:53.337Z,1185
2017-03-16T15:59:06.554Z,1065
2017-03-16T16:00:19.286Z,1100
2017-03-16T16:01:32.543Z,1160
2017-03-16T16:02:45.777Z,4385
2017-03-16T16:03:59.028Z,1285
2017-03-16T16:05:11.799Z,1190
2017-03-16T16:06:24.025Z,1120
2017-03-16T16:07:36.731Z,1110
2017-03-16T16:08:50.036Z,3235
2017-03-16T16:10:03.320Z,1100
2017-03-16T16:11:16.570Z,1730
2017-03-16T16:12:29.830Z,860
2017-03-16T16:13:42.559Z,785
2017-03-16T16:14:55.293Z,740
2017-03-16T16:16:08.008Z,720
2017-03-16T16:17:21.262Z,720
2017-03-16T16:18:34.525Z,740
2017-03-16T16:19:47.777Z,770
2017-03-16T16:21:01.024Z,780
2017-03-16T16:22:14.283Z,785
2017-03-16T16:23:26.526Z,800
2017-03-16T16:24:39.758Z,800
2017-03-16T16:25:52.990Z,805
2017-03-16T16:27:06.350Z,835
2017-03-16T16:28:19.612Z,920
2017-03-16T16:29:32.366Z,1300
2017-03-16T16:30:45.609Z,3675
2017-03-16T16:31:58.838Z,3570
2017-03-16T16:33:12.068Z,3835
2017-03-16T16:34:25.301Z,3980
2017-03-16T16:35:38.547Z,3160
2017-03-16T16:36:51.804Z,2700
2017-03-16T16:38:05.022Z,2205
2017-03-16T16:39:17.803Z,1725
2017-03-16T16:40:31.115Z,1690
2017-03-16T16:41:44.528Z,1490
2017-03-16T16:42:58.036Z,1415
2017-03-16T16:44:11.350Z,1365
2017-03-16T16:45:24.611Z,1985
2017-03-16T16:46:37.836Z,3755
2017-03-16T16:47:50.563Z,3885
2017-03-16T16:49:03.815Z,3825
2017-03-16T16:50:16.596Z,2895
2017-03-16T16:51:29.823Z,2730
2017-03-16T16:52:42.543Z,1660
2017-03-16T16:53:55.811Z,1520
2017-03-16T16:55:08.719Z,3395
2017-03-16T16:56:22.023Z,3725
2017-03-16T16:57:34.753Z,3710
2017-03-16T16:58:48.062Z,3625
2017-03-16T17:00:00.823Z,3215
2017-03-16T17:01:14.068Z,3145
2017-03-16T17:02:27.337Z,2990
2017-03-16T17:03:39.557Z,2110
2017-03-16T17:04:52.803Z,2780
2017-03-16T17:06:05.533Z,1685
2017-03-16T17:07:18.815Z,3640
2017-03-16T17:08:31.526Z,3400
2017-03-16T17:09:44.259Z,2950
2017-03-16T17:10:57.501Z,1260